Itiuba, Brazil
Current Conditions -  °F | °C
As of 5:00 PM on Monday 20 Oct 2014 (Local Time) from SBPL Reporting Station
Few Clouds Few Clouds  
Wind Chill: 99°   Ceiling: Unl
Heat Index: 99°   Visibility: 6mi
Dew Point: 61°   Wind: 7mph
Humidity: 29%   Direction: 110°ESE
Pressure: 29.8"   Gusts: NA
Location:  10.69°S, 39.85°W
Report Text: SBPL 202000Z 11006KT 9999 FEW040 37/16 Q1009
Loading
Personal Weather Stations






























Interactive Weather Map
Tropical Storm Tracking
New forecast layout! Learn more

10-Day Weather Forecast

Advertisements
Track Severe Weather on mobile